Terminal Aerodrome Forecast
Issued by NWS

Home | Current Version | Previous Version | Text Only | Print | Product List | Glossary On
Versions: 1 2 3 4 5 6 7 8 9 10 11 12 13
000
FTUS44 KMAF 252322
TAFHOB
TAF
KHOB 252322Z 2600/2624 01011G18KT P6SM SCT030 BKN050
      TEMPO 2600/2603 VRB15G25KT TSRA BKN020CB
     FM262000 05010KT P6SM BKN100=

USA.gov is the U.S. government's official web portal to all federal, state and local government web resources and services.